KDAN/DAN METAR and TAF weather

Enter ICAO airport designator
Station Type Date Time Source
KDAN METAR 2019/12/08 18:53 UTC NOAA

KDAN 081853Z AUTO 29003KT 10SM FEW036 08/M07 A3040 RMK AO2 SLP292 T00831072 $


Station Type Date Time Source
KDAN Decoded METAR 2019/12/08 18:53 UTC NOAA

DANVILLE REGIONAL AIRPORT, VA, United States (KDAN) 36-34N 079-20W 175M
Dec 08, 2019 - 01:53 PM EST / 2019.12.08 1853 UTC
Wind: from the WNW (290 degrees) at 3 MPH (3 KT):0
Visibility: 10 mile(s):0
Sky conditions: mostly clear
Temperature: 46.9 F (8.3 C)
Dew Point: 19.0 F (-7.2 C)
Relative Humidity: 32%
Pressure (altimeter): 30.4 in. Hg (1029 hPa)
ob: KDAN 081853Z AUTO 29003KT 10SM FEW036 08/M07 A3040 RMK AO2 SLP292 T00831072
cycle: 19

Station Type Date Time Source
KDAN TAF 2019/12/08 18:22 UTC NOAA

TAF KDAN 081720Z 0818/0918 VRB05KT P6SM SCT250
FM090600 VRB03KT P6SM OVC025

Example: see airport list